createdAt,value
2024-02-08T00:00:05.717Z,0.00
2024-02-08T00:01:05.803Z,0.00
2024-02-08T00:02:05.903Z,0.00
2024-02-08T00:03:05.922Z,0.00
2024-02-08T00:04:06.152Z,0.00
2024-02-08T00:05:06.181Z,0.00
2024-02-08T00:06:06.199Z,0.00
2024-02-08T00:07:06.409Z,0.00
2024-02-08T00:08:06.378Z,0.00
2024-02-08T00:09:06.438Z,0.00
2024-02-08T00:10:06.545Z,0.00
2024-02-08T00:11:06.666Z,0.00
2024-02-08T00:12:06.697Z,0.00
2024-02-08T00:13:06.821Z,0.00
2024-02-08T00:14:06.974Z,0.00
2024-02-08T00:15:06.957Z,0.00
2024-02-08T00:16:07.066Z,0.00
2024-02-08T00:17:07.292Z,0.00
2024-02-08T00:18:07.316Z,0.00
2024-02-08T00:19:07.338Z,0.00
2024-02-08T00:20:07.514Z,0.00
2024-02-08T00:21:07.458Z,0.00
2024-02-08T00:22:07.555Z,0.00
2024-02-08T00:23:07.719Z,0.00
2024-02-08T00:24:07.722Z,0.00
2024-02-08T00:25:07.787Z,0.00
2024-02-08T00:26:07.962Z,0.00
2024-02-08T00:27:07.949Z,0.00
2024-02-08T00:28:08.066Z,0.00
2024-02-08T00:29:08.279Z,0.00
2024-02-08T00:30:08.234Z,0.00
2024-02-08T00:31:08.347Z,0.00
2024-02-08T00:32:08.491Z,0.00
2024-02-08T00:33:08.518Z,0.00
2024-02-08T00:34:08.617Z,0.00
2024-02-08T00:35:11.577Z,0.00
2024-02-08T00:36:08.737Z,0.00
2024-02-08T00:37:08.822Z,0.00
2024-02-08T00:38:08.983Z,0.00
2024-02-08T00:39:09.101Z,0.00
2024-02-08T00:40:09.064Z,0.00
2024-02-08T00:41:09.202Z,0.00
2024-02-08T00:42:09.204Z,0.00
2024-02-08T00:43:09.278Z,0.00
2024-02-08T00:44:09.444Z,0.00
2024-02-08T00:45:09.444Z,0.00
2024-02-08T00:46:09.529Z,0.00
2024-02-08T00:47:09.674Z,0.00
2024-02-08T00:48:09.722Z,0.00
2024-02-08T00:49:09.879Z,0.00
2024-02-08T00:50:10.095Z,0.00
2024-02-08T00:51:09.939Z,0.00
2024-02-08T00:52:10.105Z,0.00
2024-02-08T00:53:10.171Z,0.00
2024-02-08T00:54:10.217Z,0.00
2024-02-08T00:55:10.306Z,0.00
2024-02-08T00:56:10.511Z,0.00
2024-02-08T00:57:10.470Z,0.00
2024-02-08T00:58:10.547Z,0.00
2024-02-08T00:59:10.661Z,0.00
2024-02-08T01:00:10.691Z,0.00
2024-02-08T01:01:10.815Z,0.00
2024-02-08T01:02:11.149Z,0.00
2024-02-08T01:03:11.006Z,0.00
2024-02-08T01:04:12.258Z,0.00
2024-02-08T01:05:11.204Z,0.00
2024-02-08T01:06:11.216Z,0.00
2024-02-08T01:07:11.254Z,0.00
2024-02-08T01:08:11.500Z,0.00
2024-02-08T01:09:11.414Z,0.00
2024-02-08T01:10:11.488Z,0.00
2024-02-08T01:11:11.650Z,0.00
2024-02-08T01:12:11.653Z,0.00
2024-02-08T01:13:11.729Z,0.00
2024-02-08T01:14:11.858Z,0.00
2024-02-08T01:15:11.891Z,0.00
2024-02-08T01:16:11.976Z,0.00
2024-02-08T01:17:12.132Z,0.00
2024-02-08T01:18:12.287Z,0.00
2024-02-08T01:19:12.230Z,0.00
2024-02-08T01:20:12.385Z,0.00
2024-02-08T01:21:12.361Z,0.00
2024-02-08T01:22:12.470Z,0.00
2024-02-08T01:23:12.623Z,0.00
2024-02-08T01:24:12.584Z,0.00
2024-02-08T01:25:12.624Z,0.00
2024-02-08T01:26:12.793Z,0.00
2024-02-08T01:27:12.798Z,0.00
2024-02-08T01:28:12.899Z,0.00
2024-02-08T01:29:13.034Z,0.00
2024-02-08T01:30:13.071Z,0.00
2024-02-08T01:31:13.211Z,0.00
2024-02-08T01:32:13.253Z,0.00
2024-02-08T01:33:13.352Z,0.00
2024-02-08T01:34:13.604Z,0.00
2024-02-08T01:35:13.513Z,0.00
2024-02-08T01:36:13.534Z,0.00
2024-02-08T01:37:13.608Z,0.00
2024-02-08T01:38:13.837Z,0.00
2024-02-08T01:39:13.825Z,0.00
2024-02-08T01:40:13.840Z,0.00
2024-02-08T01:41:13.942Z,0.00
2024-02-08T01:42:14.018Z,0.00
2024-02-08T01:43:14.000Z,0.00
2024-02-08T01:44:14.312Z,0.00
2024-02-08T01:45:14.205Z,0.00
2024-02-08T01:46:14.312Z,0.00
2024-02-08T01:47:14.507Z,0.00
2024-02-08T01:48:14.524Z,0.00
2024-02-08T01:49:14.581Z,0.00
2024-02-08T01:50:14.724Z,0.00
2024-02-08T01:51:14.677Z,0.00
2024-02-08T01:52:14.759Z,0.00
2024-02-08T01:53:15.468Z,0.00
2024-02-08T01:54:14.912Z,0.00
2024-02-08T01:55:14.964Z,0.00
2024-02-08T01:56:15.153Z,0.00
2024-02-08T01:57:15.154Z,0.00
2024-02-08T01:58:15.224Z,0.00
2024-02-08T01:59:15.553Z,0.00
2024-02-08T02:00:15.390Z,0.00
2024-02-08T02:01:15.523Z,0.00
2024-02-08T02:02:15.535Z,0.00
2024-02-08T02:03:15.606Z,0.00
2024-02-08T02:04:15.704Z,0.00
2024-02-08T02:05:15.835Z,0.00
2024-02-08T02:06:16.247Z,0.00
2024-02-08T02:07:15.958Z,0.00
2024-02-08T02:08:16.039Z,0.00
2024-02-08T02:09:16.145Z,0.00
2024-02-08T02:10:16.262Z,0.00
2024-02-08T02:11:16.391Z,0.00
2024-02-08T02:12:16.487Z,0.00
2024-02-08T02:13:16.498Z,0.00
2024-02-08T02:14:16.713Z,0.00
2024-02-08T02:15:16.753Z,0.00
2024-02-08T02:16:16.752Z,0.00
2024-02-08T02:17:17.145Z,0.00
2024-02-08T02:18:16.985Z,0.00
2024-02-08T02:19:17.046Z,0.00
2024-02-08T02:20:17.177Z,0.00
2024-02-08T02:21:17.167Z,0.00
2024-02-08T02:22:17.247Z,0.00
2024-02-08T02:23:17.379Z,0.00
2024-02-08T02:24:17.424Z,0.00
2024-02-08T02:25:17.513Z,0.00
2024-02-08T02:26:17.619Z,0.00
2024-02-08T02:27:17.684Z,0.00
2024-02-08T02:28:17.804Z,0.00
2024-02-08T02:29:17.888Z,0.00
2024-02-08T02:30:17.983Z,0.00
2024-02-08T02:31:18.126Z,0.00
2024-02-08T02:32:18.084Z,0.00
2024-02-08T02:33:18.247Z,0.00
2024-02-08T02:34:18.305Z,0.00
2024-02-08T02:35:18.393Z,0.00
2024-02-08T02:36:18.410Z,0.00
2024-02-08T02:37:18.507Z,0.00
2024-02-08T02:38:18.602Z,0.00
2024-02-08T02:39:18.744Z,0.00
2024-02-08T02:40:18.766Z,0.00
2024-02-08T02:41:18.920Z,0.00
2024-02-08T02:42:18.917Z,0.00
2024-02-08T02:43:19.020Z,0.00
2024-02-08T02:44:19.188Z,0.00
2024-02-08T02:45:19.198Z,0.00
2024-02-08T02:46:19.263Z,0.00
2024-02-08T02:47:19.334Z,0.00
2024-02-08T02:48:19.476Z,0.00
2024-02-08T02:49:19.508Z,0.00
2024-02-08T02:50:19.629Z,0.00
2024-02-08T02:51:19.628Z,0.00
2024-02-08T02:52:19.712Z,0.00
2024-02-08T02:53:19.817Z,0.00
2024-02-08T02:54:19.886Z,0.00
2024-02-08T02:55:19.955Z,0.00
2024-02-08T02:56:20.036Z,0.00
2024-02-08T02:57:20.126Z,0.00
2024-02-08T02:58:20.232Z,0.00
2024-02-08T02:59:20.393Z,0.00
2024-02-08T03:00:20.389Z,0.00
2024-02-08T03:01:20.690Z,0.00
2024-02-08T03:02:20.674Z,0.00
2024-02-08T03:03:20.656Z,0.00
2024-02-08T03:04:20.696Z,0.00
2024-02-08T03:05:20.809Z,0.00
2024-02-08T03:06:20.849Z,0.00
2024-02-08T03:07:20.930Z,0.00
2024-02-08T03:08:21.045Z,0.00
2024-02-08T03:09:21.092Z,0.00
2024-02-08T03:10:21.159Z,0.00
2024-02-08T03:11:21.223Z,0.00
2024-02-08T03:12:21.318Z,0.00
2024-02-08T03:13:21.427Z,0.00
2024-02-08T03:14:21.490Z,0.00
2024-02-08T03:15:21.563Z,0.00
2024-02-08T03:16:21.660Z,0.00
2024-02-08T03:17:21.765Z,0.00
2024-02-08T03:18:21.819Z,0.00
2024-02-08T03:19:22.063Z,0.00
2024-02-08T03:20:22.078Z,0.00
2024-02-08T03:21:22.062Z,0.00
2024-02-08T03:22:22.139Z,0.00
2024-02-08T03:23:22.215Z,0.00
2024-02-08T03:24:22.292Z,0.00
2024-02-08T03:25:22.367Z,0.00
2024-02-08T03:26:22.432Z,0.00
2024-02-08T03:27:22.513Z,0.00
2024-02-08T03:28:22.573Z,0.00
2024-02-08T03:29:22.652Z,0.00
2024-02-08T03:30:22.708Z,0.00
2024-02-08T03:31:22.771Z,0.00
2024-02-08T03:32:22.836Z,0.00
2024-02-08T03:33:22.911Z,0.00
2024-02-08T03:34:23.025Z,0.00
2024-02-08T03:35:23.145Z,0.00
2024-02-08T03:36:23.143Z,0.00
2024-02-08T03:37:23.232Z,0.00
2024-02-08T03:38:23.319Z,0.00
2024-02-08T03:39:23.413Z,0.00
2024-02-08T03:40:23.506Z,0.00
2024-02-08T03:41:23.561Z,0.00
2024-02-08T03:42:23.637Z,0.00
2024-02-08T03:43:23.709Z,0.00
2024-02-08T03:44:23.822Z,0.00
2024-02-08T03:45:23.883Z,0.00
2024-02-08T03:46:23.980Z,0.00
2024-02-08T03:47:24.065Z,0.00
2024-02-08T03:48:24.210Z,0.00
2024-02-08T03:49:24.224Z,0.00
2024-02-08T03:50:24.278Z,0.00
2024-02-08T03:51:24.335Z,0.00
2024-02-08T03:52:24.471Z,0.00
2024-02-08T03:53:24.510Z,0.00
2024-02-08T03:54:24.593Z,0.00
2024-02-08T03:55:24.723Z,0.00
2024-02-08T03:56:24.752Z,0.00
2024-02-08T03:57:24.818Z,0.00
2024-02-08T03:58:25.589Z,0.00
2024-02-08T03:59:24.988Z,0.00
2024-02-08T04:00:25.047Z,0.00
2024-02-08T04:01:25.215Z,0.00
2024-02-08T04:02:25.333Z,0.00
2024-02-08T04:03:25.311Z,0.00
2024-02-08T04:04:25.420Z,0.00
2024-02-08T04:05:25.498Z,0.00
2024-02-08T04:06:25.503Z,0.00
2024-02-08T04:07:25.586Z,0.00
2024-02-08T04:08:25.695Z,0.00
2024-02-08T04:09:26.493Z,0.00
2024-02-08T04:10:25.818Z,0.00
2024-02-08T04:11:25.856Z,0.00
2024-02-08T04:12:25.957Z,0.00
2024-02-08T04:13:26.061Z,0.00
2024-02-08T04:14:26.122Z,0.00
2024-02-08T04:15:26.178Z,0.00
2024-02-08T04:16:26.276Z,0.00
2024-02-08T04:17:26.402Z,0.00
2024-02-08T04:18:26.482Z,0.00
2024-02-08T04:19:26.525Z,0.00
2024-02-08T04:20:26.582Z,0.00
2024-02-08T04:21:26.691Z,0.00
2024-02-08T04:22:26.789Z,0.00
2024-02-08T04:23:26.823Z,0.00
2024-02-08T04:24:26.892Z,0.00
2024-02-08T04:25:27.020Z,0.00
2024-02-08T04:26:27.049Z,0.00
2024-02-08T04:27:27.317Z,0.00
2024-02-08T04:28:27.338Z,0.00
2024-02-08T04:29:27.310Z,0.00
2024-02-08T04:30:27.393Z,0.00
2024-02-08T04:31:27.482Z,0.00
2024-02-08T04:32:27.622Z,0.00
2024-02-08T04:33:27.733Z,0.00
2024-02-08T04:34:27.793Z,0.00
2024-02-08T04:35:27.782Z,0.00
2024-02-08T04:36:27.867Z,0.00
2024-02-08T04:37:27.946Z,0.00
2024-02-08T04:38:28.002Z,0.00
2024-02-08T04:39:28.087Z,0.00
2024-02-08T04:40:30.290Z,0.00
2024-02-08T04:41:28.287Z,0.00
2024-02-08T04:42:28.337Z,0.00
2024-02-08T04:43:28.427Z,0.00
2024-02-08T04:44:28.509Z,0.00
2024-02-08T04:45:28.613Z,0.00
2024-02-08T04:46:28.659Z,0.00
2024-02-08T04:47:28.747Z,0.00
2024-02-08T04:48:28.917Z,0.00
2024-02-08T04:49:28.956Z,0.00
2024-02-08T04:50:28.955Z,0.00
2024-02-08T04:51:29.021Z,0.00
2024-02-08T04:52:29.157Z,0.00
2024-02-08T04:53:29.230Z,0.00
2024-02-08T04:54:29.306Z,0.00
2024-02-08T04:55:29.410Z,0.00
2024-02-08T04:56:29.473Z,0.00
2024-02-08T04:57:29.565Z,0.00
2024-02-08T04:58:48.443Z,0.00
2024-02-08T04:59:29.842Z,0.00
2024-02-08T05:00:29.882Z,0.00
2024-02-08T05:01:29.902Z,0.00
2024-02-08T05:02:29.976Z,0.00
2024-02-08T05:03:30.038Z,0.00
2024-02-08T05:04:30.210Z,0.00
2024-02-08T05:05:30.280Z,0.00
2024-02-08T05:06:30.369Z,0.00
2024-02-08T05:07:30.416Z,0.00
2024-02-08T05:08:30.466Z,0.00
2024-02-08T05:09:30.547Z,0.00
2024-02-08T05:10:30.737Z,0.00
2024-02-08T05:11:30.954Z,0.00
2024-02-08T05:12:30.776Z,0.00
2024-02-08T05:13:30.893Z,0.00
2024-02-08T05:14:30.949Z,0.00
2024-02-08T05:15:31.016Z,0.00
2024-02-08T05:16:31.156Z,0.00
2024-02-08T05:17:31.365Z,0.00
2024-02-08T05:18:31.312Z,0.00
2024-02-08T05:19:31.445Z,0.00
2024-02-08T05:20:31.432Z,0.00
2024-02-08T05:21:31.499Z,0.00
2024-02-08T05:22:31.589Z,0.00
2024-02-08T05:23:31.632Z,0.00
2024-02-08T05:24:32.006Z,0.00
2024-02-08T05:25:31.809Z,0.00
2024-02-08T05:26:31.888Z,0.00
2024-02-08T05:27:31.936Z,0.00
2024-02-08T05:28:32.070Z,0.00
2024-02-08T05:29:32.100Z,0.00
2024-02-08T05:30:32.164Z,0.00
2024-02-08T05:31:32.271Z,0.00
2024-02-08T05:32:32.351Z,0.00
2024-02-08T05:33:32.400Z,0.00
2024-02-08T05:34:32.529Z,0.00
2024-02-08T05:35:32.655Z,0.00
2024-02-08T05:36:32.670Z,0.00
2024-02-08T05:37:32.820Z,0.00
2024-02-08T05:38:32.816Z,0.00
2024-02-08T05:39:32.894Z,0.00
2024-02-08T05:40:33.084Z,0.00
2024-02-08T05:41:33.054Z,0.00
2024-02-08T05:42:33.149Z,0.00
2024-02-08T05:43:33.216Z,0.00
2024-02-08T05:44:34.197Z,0.00
2024-02-08T05:45:33.381Z,0.00
2024-02-08T05:46:33.480Z,0.00
2024-02-08T05:47:33.552Z,0.00
2024-02-08T05:48:33.636Z,0.00
2024-02-08T05:49:33.815Z,0.00
2024-02-08T05:50:33.768Z,0.00
2024-02-08T05:51:33.922Z,0.00
2024-02-08T05:52:33.982Z,0.00
2024-02-08T05:53:34.092Z,0.00
2024-02-08T05:54:34.132Z,0.00
2024-02-08T05:55:34.213Z,0.00
2024-02-08T05:56:34.259Z,0.00
2024-02-08T05:57:34.336Z,0.00
2024-02-08T05:58:34.402Z,0.00
2024-02-08T05:59:34.485Z,0.00
2024-02-08T06:00:34.557Z,0.00
2024-02-08T06:01:34.679Z,0.00
2024-02-08T06:02:34.692Z,0.00
2024-02-08T06:03:34.990Z,0.00
2024-02-08T06:04:34.909Z,0.00
2024-02-08T06:05:34.985Z,0.00
2024-02-08T06:06:35.437Z,0.00
2024-02-08T06:07:35.176Z,0.00
2024-02-08T06:08:35.198Z,0.00
2024-02-08T06:09:35.276Z,0.00
2024-02-08T06:10:35.351Z,0.00
2024-02-08T06:11:35.395Z,0.00
2024-02-08T06:12:35.463Z,0.00
2024-02-08T06:13:35.622Z,0.00
2024-02-08T06:14:35.641Z,0.00
2024-02-08T06:15:35.718Z,0.00
2024-02-08T06:16:35.817Z,0.00
2024-02-08T06:17:35.882Z,0.00
2024-02-08T06:18:35.978Z,0.00
2024-02-08T06:19:36.111Z,0.00
2024-02-08T06:20:36.103Z,0.00
2024-02-08T06:21:36.166Z,0.00
2024-02-08T06:22:36.280Z,0.00
2024-02-08T06:23:36.477Z,0.00
2024-02-08T06:24:36.412Z,0.00
2024-02-08T06:25:36.493Z,0.00
2024-02-08T06:26:36.565Z,0.00
2024-02-08T06:27:36.641Z,0.00
2024-02-08T06:28:36.755Z,0.00
2024-02-08T06:29:36.834Z,0.00
2024-02-08T06:30:36.878Z,0.00
2024-02-08T06:31:38.253Z,0.00
2024-02-08T06:32:37.056Z,0.00
2024-02-08T06:33:37.156Z,0.00
2024-02-08T06:34:37.275Z,4.00
2024-02-08T06:35:37.301Z,4.00
2024-02-08T06:36:37.390Z,0.00
2024-02-08T06:37:37.531Z,4.00
2024-02-08T06:38:37.524Z,8.00
2024-02-08T06:39:38.909Z,4.00
2024-02-08T06:40:37.710Z,8.00
2024-02-08T06:41:37.792Z,8.00
2024-02-08T06:42:37.857Z,8.00
2024-02-08T06:43:37.963Z,8.00
2024-02-08T06:44:38.039Z,12.00
2024-02-08T06:45:38.101Z,16.00
2024-02-08T06:46:38.235Z,16.00
2024-02-08T06:47:38.350Z,20.00
2024-02-08T06:48:38.496Z,20.00
2024-02-08T06:49:38.522Z,20.00
2024-02-08T06:50:38.502Z,28.00
2024-02-08T06:51:38.585Z,28.00
2024-02-08T06:52:38.665Z,32.00
2024-02-08T06:53:39.291Z,40.00
2024-02-08T06:54:38.848Z,40.00
2024-02-08T06:55:38.904Z,48.00
2024-02-08T06:56:38.980Z,56.00
2024-02-08T06:57:39.075Z,68.00
2024-02-08T06:58:39.175Z,80.00
2024-02-08T06:59:39.263Z,96.00
2024-02-08T07:00:39.348Z,104.00
2024-02-08T07:01:39.503Z,116.00
2024-02-08T07:02:39.487Z,132.00
2024-02-08T07:03:39.623Z,148.00
2024-02-08T07:04:39.728Z,160.00
2024-02-08T07:05:39.709Z,160.00
2024-02-08T07:06:39.881Z,164.00
2024-02-08T07:07:40.004Z,168.00
2024-02-08T07:08:39.967Z,180.00
2024-02-08T07:09:40.037Z,196.00
2024-02-08T07:10:43.632Z,212.00
2024-02-08T07:11:40.260Z,228.00
2024-02-08T07:12:40.293Z,224.00
2024-02-08T07:13:40.370Z,212.00
2024-02-08T07:14:40.452Z,212.00
2024-02-08T07:15:40.518Z,228.00
2024-02-08T07:16:40.597Z,256.00
2024-02-08T07:17:40.734Z,296.00
2024-02-08T07:18:49.431Z,324.00
2024-02-08T07:19:40.949Z,328.00
2024-02-08T07:20:40.986Z,304.00
2024-02-08T07:21:41.049Z,252.00
2024-02-08T07:22:41.097Z,212.00
2024-02-08T07:23:41.207Z,192.00
2024-02-08T07:24:41.374Z,188.00
2024-02-08T07:25:41.494Z,200.00
2024-02-08T07:26:41.440Z,224.00
2024-02-08T07:27:41.525Z,252.00
2024-02-08T07:28:41.592Z,280.00
2024-02-08T07:29:41.701Z,316.00
2024-02-08T07:30:41.768Z,360.00
2024-02-08T07:31:41.876Z,428.00
2024-02-08T07:32:41.936Z,480.00
2024-02-08T07:33:42.017Z,544.00
2024-02-08T07:34:42.133Z,648.00
2024-02-08T07:35:42.139Z,752.00
2024-02-08T07:36:42.222Z,820.00
2024-02-08T07:37:42.279Z,828.00
2024-02-08T07:38:42.344Z,844.00
2024-02-08T07:39:42.466Z,872.00
2024-02-08T07:40:42.564Z,912.00
2024-02-08T07:41:42.623Z,960.00
2024-02-08T07:42:43.397Z,1000.00
2024-02-08T07:43:42.774Z,1052.00
2024-02-08T07:44:42.887Z,1100.00
2024-02-08T07:45:42.930Z,1180.00
2024-02-08T07:46:43.037Z,1316.00
2024-02-08T07:47:43.097Z,1484.00
2024-02-08T07:48:43.149Z,1636.00
2024-02-08T07:49:43.352Z,1748.00
2024-02-08T07:50:43.262Z,1832.00
2024-02-08T07:51:43.366Z,1864.00
2024-02-08T07:52:43.421Z,1836.00
2024-02-08T07:53:43.497Z,1824.00
2024-02-08T07:54:43.657Z,1808.00
2024-02-08T07:55:43.647Z,1792.00
2024-02-08T07:56:43.690Z,1764.00
2024-02-08T07:57:43.780Z,1732.00
2024-02-08T07:58:43.884Z,1732.00
2024-02-08T07:59:43.904Z,1764.00
2024-02-08T08:00:44.327Z,1844.00
2024-02-08T08:01:44.178Z,1956.00
2024-02-08T08:02:44.174Z,2004.00
2024-02-08T08:03:44.314Z,2004.00
2024-02-08T08:04:45.609Z,2020.00
2024-02-08T08:05:44.462Z,2036.00
2024-02-08T08:06:44.598Z,2040.00
2024-02-08T08:07:44.607Z,2016.00
2024-02-08T08:08:44.687Z,2036.00
2024-02-08T08:09:44.812Z,2128.00
2024-02-08T08:10:44.832Z,2232.00
2024-02-08T08:11:44.994Z,2324.00
2024-02-08T08:12:45.066Z,2400.00
2024-02-08T08:13:45.105Z,2500.00
2024-02-08T08:14:45.189Z,2628.00
2024-02-08T08:15:45.261Z,2700.00
2024-02-08T08:16:45.354Z,2660.00
2024-02-08T08:17:45.759Z,2564.00
2024-02-08T08:18:45.574Z,2616.00
2024-02-08T08:19:46.418Z,2756.00
2024-02-08T08:20:45.683Z,2920.00
2024-02-08T08:21:45.842Z,3120.00
2024-02-08T08:22:45.869Z,3172.00
2024-02-08T08:23:45.928Z,2824.00
2024-02-08T08:24:46.052Z,2488.00
2024-02-08T08:25:46.677Z,2324.00
2024-02-08T08:26:46.197Z,2356.00
2024-02-08T08:27:46.291Z,2488.00
2024-02-08T08:28:46.427Z,2568.00
2024-02-08T08:29:46.474Z,2664.00
2024-02-08T08:30:46.613Z,2656.00
2024-02-08T08:31:46.619Z,2632.00
2024-02-08T08:32:46.785Z,2620.00
2024-02-08T08:33:47.006Z,2648.00
2024-02-08T08:34:47.071Z,2736.00
2024-02-08T08:35:46.948Z,2816.00
2024-02-08T08:36:47.026Z,2728.00
2024-02-08T08:37:47.113Z,2668.00
2024-02-08T08:38:47.204Z,2580.00
2024-02-08T08:39:47.343Z,2428.00
2024-02-08T08:40:47.476Z,2204.00
2024-02-08T08:41:47.448Z,1952.00
2024-02-08T08:42:47.621Z,1944.00
2024-02-08T08:43:47.637Z,2104.00
2024-02-08T08:44:47.697Z,2280.00
2024-02-08T08:45:47.848Z,2388.00
2024-02-08T08:46:47.902Z,2556.00
2024-02-08T08:47:47.985Z,2720.00
2024-02-08T08:48:48.197Z,2960.00
2024-02-08T08:49:48.294Z,3048.00
2024-02-08T08:50:48.197Z,3064.00
2024-02-08T08:51:48.331Z,2960.00
2024-02-08T08:52:48.954Z,2900.00
2024-02-08T08:53:48.470Z,2940.00
2024-02-08T08:54:48.572Z,2944.00
2024-02-08T08:55:48.592Z,3148.00
2024-02-08T08:56:48.652Z,3548.00
2024-02-08T08:57:49.019Z,3884.00
2024-02-08T08:58:50.607Z,3932.00
2024-02-08T08:59:48.938Z,3880.00
2024-02-08T09:00:49.125Z,3828.00
2024-02-08T09:01:49.129Z,3804.00
2024-02-08T09:02:49.134Z,3752.00
2024-02-08T09:03:49.343Z,3672.00
2024-02-08T09:04:49.496Z,3576.00
2024-02-08T09:05:49.385Z,3344.00
2024-02-08T09:06:49.832Z,3000.00
2024-02-08T09:07:49.645Z,2728.00
2024-02-08T09:08:49.592Z,2676.00
2024-02-08T09:09:49.744Z,2852.00
2024-02-08T09:10:49.814Z,3048.00
2024-02-08T09:11:49.836Z,3204.00
2024-02-08T09:12:49.964Z,3356.00
2024-02-08T09:13:51.172Z,3592.00
2024-02-08T09:14:50.132Z,3756.00
2024-02-08T09:15:50.223Z,3868.00
2024-02-08T09:16:50.276Z,3976.00
2024-02-08T09:17:50.418Z,3960.00
2024-02-08T09:18:50.466Z,3840.00
2024-02-08T09:19:50.606Z,3776.00
2024-02-08T09:20:50.538Z,3808.00
2024-02-08T09:21:50.669Z,3904.00
2024-02-08T09:22:50.735Z,3964.00
2024-02-08T09:23:50.839Z,4040.00
2024-02-08T09:24:50.953Z,4080.00
2024-02-08T09:25:51.024Z,4112.00
2024-02-08T09:26:51.037Z,4232.00
2024-02-08T09:27:51.138Z,4256.00
2024-02-08T09:28:51.185Z,4276.00
2024-02-08T09:29:51.309Z,4240.00
2024-02-08T09:30:51.376Z,4064.00
2024-02-08T09:31:51.435Z,3944.00
2024-02-08T09:32:51.563Z,3888.00
2024-02-08T09:33:51.905Z,3780.00
2024-02-08T09:34:51.817Z,3732.00
2024-02-08T09:35:51.829Z,3664.00
2024-02-08T09:36:51.862Z,3540.00
2024-02-08T09:37:51.921Z,3484.00
2024-02-08T09:38:52.888Z,3524.00
2024-02-08T09:39:52.105Z,3532.00
2024-02-08T09:40:52.255Z,3504.00
2024-02-08T09:41:52.247Z,3520.00
2024-02-08T09:42:52.356Z,3556.00
2024-02-08T09:43:52.424Z,3676.00
2024-02-08T09:44:52.558Z,3576.00
2024-02-08T09:45:52.691Z,3580.00
2024-02-08T09:46:52.654Z,3572.00
2024-02-08T09:47:53.552Z,3596.00
2024-02-08T09:48:52.788Z,3700.00
2024-02-08T09:49:52.927Z,3756.00
2024-02-08T09:50:52.915Z,3880.00
2024-02-08T09:51:53.065Z,3900.00
2024-02-08T09:52:55.774Z,3976.00
2024-02-08T09:53:53.682Z,4060.00
2024-02-08T09:54:53.334Z,4204.00
2024-02-08T09:55:53.353Z,4208.00
2024-02-08T09:56:53.432Z,4236.00
2024-02-08T09:57:53.552Z,4264.00
2024-02-08T09:59:53.670Z,4440.00
2024-02-08T10:00:54.392Z,4608.00
2024-02-08T10:01:53.823Z,4536.00
2024-02-08T10:02:53.845Z,4652.00
2024-02-08T10:03:54.036Z,4456.00
2024-02-08T10:04:54.041Z,4536.00
2024-02-08T10:05:54.076Z,4324.00
2024-02-08T10:06:54.217Z,4416.00
2024-02-08T10:07:54.240Z,4168.00
2024-02-08T10:08:54.321Z,4228.00
2024-02-08T10:09:54.507Z,4360.00
2024-02-08T10:10:54.464Z,4364.00
2024-02-08T10:11:54.551Z,4444.00
2024-02-08T10:12:54.969Z,4436.00
2024-02-08T10:13:54.732Z,4224.00
2024-02-08T10:14:54.789Z,3956.00
2024-02-08T10:15:54.870Z,3560.00
2024-02-08T10:16:54.948Z,3480.00
2024-02-08T10:17:55.076Z,3388.00
2024-02-08T10:18:55.147Z,3248.00
2024-02-08T10:19:55.252Z,3324.00
2024-02-08T10:20:55.214Z,3096.00
2024-02-08T10:21:55.317Z,3056.00
2024-02-08T10:22:55.735Z,2952.00
2024-02-08T10:23:55.432Z,2848.00
2024-02-08T10:24:55.580Z,2908.00
2024-02-08T10:25:55.595Z,2872.00
2024-02-08T10:26:55.663Z,2996.00
2024-02-08T10:27:55.788Z,2960.00
2024-02-08T10:28:56.065Z,2852.00
2024-02-08T10:29:55.926Z,2888.00
2024-02-08T10:30:56.000Z,2924.00
2024-02-08T10:31:56.107Z,2988.00
2024-02-08T10:32:56.269Z,3104.00
2024-02-08T10:33:56.340Z,3012.00
2024-02-08T10:34:56.364Z,2844.00
2024-02-08T10:35:56.361Z,2672.00
2024-02-08T10:36:56.476Z,2580.00
2024-02-08T10:37:56.559Z,2792.00
2024-02-08T10:38:56.812Z,3072.00
2024-02-08T10:39:56.738Z,3004.00
2024-02-08T10:40:56.744Z,2996.00
2024-02-08T10:41:56.827Z,2964.00
2024-02-08T10:42:56.957Z,3132.00
2024-02-08T10:43:56.999Z,3248.00
2024-02-08T10:44:57.102Z,3380.00
2024-02-08T10:45:57.191Z,3432.00
2024-02-08T10:46:57.274Z,3372.00
2024-02-08T10:47:57.335Z,3228.00
2024-02-08T10:48:57.476Z,3044.00
2024-02-08T10:49:57.601Z,2852.00
2024-02-08T10:50:57.525Z,2864.00
2024-02-08T10:51:57.606Z,3044.00
2024-02-08T10:52:57.697Z,3148.00
2024-02-08T10:53:57.768Z,3068.00
2024-02-08T10:54:58.089Z,2956.00
2024-02-08T10:55:58.023Z,2892.00
2024-02-08T10:56:58.072Z,2792.00
2024-02-08T10:57:58.089Z,2876.00
2024-02-08T10:58:58.152Z,2924.00
2024-02-08T10:59:58.248Z,2920.00
2024-02-08T11:00:58.427Z,2936.00
2024-02-08T11:01:58.437Z,2928.00
2024-02-08T11:02:58.442Z,2860.00
2024-02-08T11:03:58.590Z,2884.00
2024-02-08T11:04:58.773Z,2852.00
2024-02-08T11:05:58.766Z,2584.00
2024-02-08T11:06:58.881Z,2540.00
2024-02-08T11:07:58.900Z,2760.00
2024-02-08T11:08:58.978Z,2768.00
2024-02-08T11:09:59.087Z,2748.00
2024-02-08T11:10:59.144Z,2776.00
2024-02-08T11:11:59.180Z,2832.00
2024-02-08T11:12:59.315Z,2740.00
2024-02-08T11:13:59.356Z,2632.00
2024-02-08T11:14:59.462Z,2612.00
2024-02-08T11:15:59.629Z,2704.00
2024-02-08T11:16:59.822Z,2672.00
2024-02-08T11:17:59.718Z,2744.00
2024-02-08T11:18:59.861Z,3060.00
2024-02-08T11:20:00.428Z,3076.00
2024-02-08T11:20:59.935Z,3148.00
2024-02-08T11:22:00.061Z,3100.00
2024-02-08T11:23:00.098Z,3584.00
2024-02-08T11:24:00.192Z,4624.00
2024-02-08T11:25:00.475Z,5344.00
2024-02-08T11:26:00.335Z,5620.00
2024-02-08T11:27:00.412Z,5580.00
2024-02-08T11:28:04.470Z,5480.00
2024-02-08T11:29:00.655Z,5412.00
2024-02-08T11:30:00.687Z,5252.00
2024-02-08T11:31:00.756Z,5168.00
2024-02-08T11:32:00.868Z,5076.00
2024-02-08T11:33:00.964Z,4944.00
2024-02-08T11:34:01.034Z,4796.00
2024-02-08T11:35:01.171Z,4704.00
2024-02-08T11:36:01.141Z,4736.00
2024-02-08T11:37:01.267Z,4888.00
2024-02-08T11:38:01.299Z,5092.00
2024-02-08T11:39:01.391Z,5372.00
2024-02-08T11:40:02.217Z,5732.00
2024-02-08T11:41:01.598Z,6064.00
2024-02-08T11:42:01.954Z,6268.00
2024-02-08T11:43:01.730Z,6268.00
2024-02-08T11:44:01.791Z,6160.00
2024-02-08T11:45:02.603Z,5956.00
2024-02-08T11:46:01.953Z,5776.00
2024-02-08T11:47:02.025Z,5640.00
2024-02-08T11:48:02.182Z,5556.00
2024-02-08T11:49:02.242Z,5536.00
2024-02-08T11:50:03.327Z,5600.00
2024-02-08T11:51:02.346Z,5732.00
2024-02-08T11:52:02.464Z,5860.00
2024-02-08T11:53:02.493Z,5916.00
2024-02-08T11:54:02.567Z,5752.00
2024-02-08T11:55:02.757Z,4744.00
2024-02-08T11:56:02.760Z,4080.00
2024-02-08T11:57:02.819Z,4032.00
2024-02-08T11:58:02.922Z,4412.00
2024-02-08T11:59:02.985Z,4468.00
2024-02-08T12:00:03.092Z,4648.00
2024-02-08T12:01:03.214Z,4580.00
2024-02-08T12:02:03.342Z,4656.00
2024-02-08T12:03:03.453Z,4188.00
2024-02-08T12:04:03.503Z,3888.00
2024-02-08T12:05:03.646Z,3800.00
2024-02-08T12:06:03.549Z,3580.00
2024-02-08T12:07:03.730Z,3300.00
2024-02-08T12:08:03.801Z,3148.00
2024-02-08T12:09:03.803Z,3376.00
2024-02-08T12:10:03.928Z,3188.00
2024-02-08T12:11:03.941Z,3464.00
2024-02-08T12:12:04.029Z,4292.00
2024-02-08T12:13:04.125Z,4176.00
2024-02-08T12:14:10.881Z,3724.00
2024-02-08T12:15:04.302Z,3516.00
2024-02-08T12:16:04.409Z,3920.00
2024-02-08T12:17:04.451Z,4440.00
2024-02-08T12:18:04.588Z,3948.00
2024-02-08T12:19:04.690Z,3304.00
2024-02-08T12:20:04.912Z,3192.00
2024-02-08T12:21:04.801Z,2752.00
2024-02-08T12:22:05.726Z,2872.00
2024-02-08T12:23:04.931Z,3224.00
2024-02-08T12:24:04.995Z,3512.00
2024-02-08T12:25:05.141Z,4300.00
2024-02-08T12:26:05.197Z,4748.00
2024-02-08T12:27:05.267Z,4412.00
2024-02-08T12:28:05.379Z,3872.00
2024-02-08T12:29:05.430Z,3584.00
2024-02-08T12:30:05.546Z,3412.00
2024-02-08T12:31:05.618Z,3380.00
2024-02-08T12:32:05.664Z,3540.00
2024-02-08T12:33:05.787Z,3776.00
2024-02-08T12:34:06.010Z,3804.00
2024-02-08T12:35:05.914Z,3712.00
2024-02-08T12:36:05.985Z,3860.00
2024-02-08T12:37:06.275Z,4420.00
2024-02-08T12:38:06.137Z,4864.00
2024-02-08T12:39:06.206Z,4976.00
2024-02-08T12:40:06.321Z,4852.00
2024-02-08T12:41:06.364Z,4512.00
2024-02-08T12:42:06.574Z,4040.00
2024-02-08T12:43:06.573Z,3380.00
2024-02-08T12:44:06.679Z,2908.00
2024-02-08T12:45:06.774Z,2516.00
2024-02-08T12:46:06.926Z,2304.00